Time;durP1;ratioP1;P1;durP2;ratioP2;P2;SDS_P1;SDS_P2;PMS_P1;PMS_P2;Temp;Humidity;BMP_temperature;BMP_pressure;BME280_temperature;BME280_humidity;BME280_pressure;Samples;Min_cycle;Max_cycle;Signal;HPM_P1;HPM_P2
2022/05/28 00:00:52;;;;;;;3.30;1.83;;;17.20;44.00;;;;;;5065165;28;20450;-91
2022/05/28 00:03:19;;;;;;;4.40;1.93;;;17.30;44.50;;;;;;5054642;28;21018;-91
2022/05/28 00:05:46;;;;;;;2.33;1.60;;;17.30;44.20;;;;;;5056290;28;20436;-91
2022/05/28 00:08:13;;;;;;;5.60;1.80;;;17.40;44.50;;;;;;5064411;28;20714;-90
2022/05/28 00:10:41;;;;;;;7.83;2.30;;;17.40;44.60;;;;;;5092405;28;20570;-92
2022/05/28 00:13:10;;;;;;;6.83;2.40;;;17.40;43.80;;;;;;5063959;28;20535;-91
2022/05/28 00:15:38;;;;;;;6.00;2.23;;;17.40;44.30;;;;;;5050171;28;20458;-90
2022/05/28 00:18:05;;;;;;;4.63;1.57;;;17.40;44.30;;;;;;5062142;28;20496;-91
2022/05/28 00:20:32;;;;;;;8.30;2.37;;;17.40;44.00;;;;;;5049951;28;20431;-90
2022/05/28 00:22:59;;;;;;;3.27;1.63;;;17.30;43.30;;;;;;5077394;28;20505;-92
2022/05/28 00:25:27;;;;;;;2.93;1.73;;;17.30;44.10;;;;;;5067687;28;20481;-90
2022/05/28 00:27:54;;;;;;;2.23;1.80;;;17.30;44.20;;;;;;5078882;28;20951;-93
2022/05/28 00:30:23;;;;;;;9.50;3.40;;;17.30;44.60;;;;;;5051994;28;20527;-91
2022/05/28 00:32:50;;;;;;;6.27;2.33;;;17.30;44.60;;;;;;5061554;28;20456;-91
2022/05/28 00:35:20;;;;;;;3.60;2.13;;;17.20;44.70;;;;;;5055423;28;20472;-92
2022/05/28 00:37:48;;;;;;;9.30;2.30;;;17.20;45.10;;;;;;5072065;28;20804;-91
2022/05/28 00:40:20;;;;;;;9.87;2.13;;;17.20;45.40;;;;;;5069715;28;20522;-90
2022/05/28 00:42:47;;;;;;;4.10;1.90;;;17.00;45.00;;;;;;5046284;28;20443;-93
2022/05/28 00:45:15;;;;;;;5.87;2.40;;;17.00;45.80;;;;;;5054559;28;20507;-92
2022/05/28 00:47:48;;;;;;;2.30;1.90;;;17.00;45.70;;;;;;5051179;28;20924;-92
2022/05/28 00:50:16;;;;;;;5.40;1.97;;;17.00;45.80;;;;;;5047572;28;20479;-92
2022/05/28 00:52:44;;;;;;;5.17;1.90;;;17.00;45.60;;;;;;5054357;28;20455;-89
2022/05/28 00:55:12;;;;;;;4.37;1.90;;;17.00;45.60;;;;;;5089790;28;20453;-91
2022/05/28 00:57:41;;;;;;;6.23;2.20;;;16.90;45.00;;;;;;5091982;28;20523;-90
2022/05/28 01:00:10;;;;;;;4.37;1.60;;;16.80;45.30;;;;;;5072539;28;20569;-90
2022/05/28 01:02:46;;;;;;;2.70;1.70;;;16.80;46.30;;;;;;5101933;28;20446;-90
2022/05/28 01:05:22;;;;;;;11.10;2.53;;;16.80;45.70;;;;;;5066149;28;20449;-91
2022/05/28 01:08:01;;;;;;;5.33;2.00;;;16.70;45.20;;;;;;5065990;28;20978;-90
2022/05/28 01:10:35;;;;;;;4.63;2.50;;;16.70;45.00;;;;;;5065070;28;20473;-90
2022/05/28 01:13:08;;;;;;;7.80;2.43;;;16.60;44.70;;;;;;5081822;28;20493;-89
2022/05/28 01:15:39;;;;;;;4.20;2.10;;;16.60;44.60;;;;;;5056239;28;20538;-93
2022/05/28 01:18:11;;;;;;;8.27;2.57;;;16.50;45.80;;;;;;5080581;28;20555;-90
2022/05/28 01:20:44;;;;;;;7.00;2.37;;;16.60;46.10;;;;;;5055608;28;20443;-90
2022/05/28 01:23:24;;;;;;;4.03;1.83;;;16.40;46.10;;;;;;5085845;28;20458;-90
2022/05/28 01:26:03;;;;;;;5.73;2.03;;;16.20;45.00;;;;;;5070790;28;20443;-90
2022/05/28 01:28:36;;;;;;;6.30;2.27;;;16.20;46.00;;;;;;5050345;28;20467;-92
2022/05/28 01:31:05;;;;;;;8.43;2.40;;;16.20;46.00;;;;;;5065417;28;20452;-91
2022/05/28 01:33:35;;;;;;;8.53;2.67;;;16.20;46.20;;;;;;5071071;28;20443;-90
2022/05/28 01:36:05;;;;;;;5.47;2.00;;;16.30;46.20;;;;;;5081420;28;20440;-91
2022/05/28 01:38:34;;;;;;;7.37;2.50;;;16.30;45.40;;;;;;5069279;28;20468;-91
2022/05/28 01:41:03;;;;;;;7.83;2.03;;;16.30;45.40;;;;;;5072815;28;20878;-90
2022/05/28 01:43:33;;;;;;;10.33;2.30;;;16.30;45.40;;;;;;5060890;28;20451;-90
2022/05/28 01:46:01;;;;;;;3.30;2.30;;;16.30;46.00;;;;;;5051121;28;20443;-91
2022/05/28 01:48:28;;;;;;;3.37;1.87;;;16.10;45.10;;;;;;5054003;28;20498;-91
2022/05/28 01:50:57;;;;;;;8.57;2.13;;;16.10;46.20;;;;;;5049980;28;20450;-90
2022/05/28 01:56:11;;;;;;;3.70;1.90;;;16.00;46.10;;;;;;5058954;28;20447;-90
2022/05/28 01:58:40;;;;;;;5.67;2.60;;;15.90;48.20;;;;;;5102205;28;20467;-90
2022/05/28 02:01:09;;;;;;;7.23;2.30;;;15.90;49.20;;;;;;5064423;28;20451;-91
2022/05/28 02:03:41;;;;;;;6.40;2.50;;;15.80;49.50;;;;;;5071310;28;20497;-94
2022/05/28 02:06:08;;;;;;;5.83;2.70;;;15.90;48.90;;;;;;5066973;28;21049;-90
2022/05/28 02:08:39;;;;;;;3.37;1.50;;;15.90;48.50;;;;;;5097726;28;20458;-90
2022/05/28 02:11:12;;;;;;;4.37;2.03;;;15.90;49.20;;;;;;5049067;28;20454;-90
2022/05/28 02:13:52;;;;;;;2.90;1.70;;;15.90;49.60;;;;;;5080416;28;20447;-90
2022/05/28 02:16:26;;;;;;;3.37;2.20;;;16.00;48.30;;;;;;5062809;28;20863;-90
2022/05/28 02:18:57;;;;;;;7.97;2.53;;;15.90;47.20;;;;;;5071623;28;20475;-90
2022/05/28 02:21:32;;;;;;;4.07;2.37;;;15.90;47.90;;;;;;5055195;28;20935;-89
2022/05/28 02:24:05;;;;;;;5.00;2.00;;;15.90;48.40;;;;;;5086545;28;20924;-93
2022/05/28 02:26:43;;;;;;;5.53;1.90;;;15.80;49.00;;;;;;5083428;28;20903;-91
2022/05/28 02:29:14;;;;;;;7.80;2.40;;;15.90;48.60;;;;;;5060490;28;20519;-90
2022/05/28 02:31:45;;;;;;;7.30;2.60;;;15.80;47.90;;;;;;5060957;28;20456;-91
2022/05/28 02:34:12;;;;;;;5.53;2.93;;;15.70;49.20;;;;;;5054992;28;20910;-90
2022/05/28 02:36:40;;;;;;;2.23;1.90;;;15.60;49.90;;;;;;5062528;28;20448;-91
2022/05/28 02:39:07;;;;;;;4.13;2.00;;;15.60;48.80;;;;;;5066015;28;20521;-91
2022/05/28 02:41:34;;;;;;;6.13;2.13;;;15.70;48.10;;;;;;5066330;28;20446;-90
2022/05/28 02:44:02;;;;;;;6.80;3.67;;;15.70;47.60;;;;;;5081588;28;20447;-89
2022/05/28 02:46:31;;;;;;;6.03;2.67;;;15.60;49.60;;;;;;5083573;28;20989;-89
2022/05/28 02:48:59;;;;;;;5.03;2.40;;;15.70;49.00;;;;;;5045311;28;20475;-91
2022/05/28 02:51:26;;;;;;;4.03;2.10;;;15.70;48.20;;;;;;5082370;28;20466;-89
2022/05/28 02:53:55;;;;;;;10.20;3.00;;;15.60;47.70;;;;;;5088879;28;20462;-90
2022/05/28 02:56:22;;;;;;;5.03;2.00;;;15.70;47.60;;;;;;5074798;28;20510;-89
2022/05/28 02:58:50;;;;;;;4.20;2.20;;;15.60;47.60;;;;;;5072192;28;20487;-91
2022/05/28 03:01:19;;;;;;;6.27;2.10;;;15.60;48.00;;;;;;5071457;28;20462;-93
2022/05/28 03:03:49;;;;;;;6.93;2.07;;;15.60;48.40;;;;;;5054399;28;20935;-92
2022/05/28 03:06:16;;;;;;;4.33;2.57;;;15.60;48.40;;;;;;5066862;28;20450;-90
2022/05/28 03:08:44;;;;;;;5.30;1.90;;;15.60;49.20;;;;;;5045232;28;20528;-90
2022/05/28 03:11:11;;;;;;;3.90;2.70;;;15.50;50.40;;;;;;5072381;28;20548;-89
2022/05/28 03:13:39;;;;;;;8.93;2.23;;;15.40;50.80;;;;;;5065143;28;20479;-89
2022/05/28 03:16:07;;;;;;;4.27;2.63;;;15.40;50.50;;;;;;5055162;28;20439;-88
2022/05/28 03:18:34;;;;;;;3.40;2.47;;;15.40;51.20;;;;;;5059855;28;20542;-89
2022/05/28 03:21:03;;;;;;;4.17;2.20;;;15.40;50.50;;;;;;5078840;28;21319;-87
2022/05/28 03:23:30;;;;;;;3.60;2.83;;;15.30;50.30;;;;;;5055919;28;20528;-90
2022/05/28 03:25:58;;;;;;;6.80;2.40;;;15.10;49.60;;;;;;5074631;28;20458;-90
2022/05/28 03:28:25;;;;;;;6.87;2.33;;;14.90;49.70;;;;;;5056655;28;20470;-92
2022/05/28 03:30:53;;;;;;;7.87;1.90;;;14.80;50.10;;;;;;5047618;28;20447;-91
2022/05/28 03:33:20;;;;;;;4.93;1.93;;;14.80;48.80;;;;;;5043707;28;20471;-90
2022/05/28 03:35:47;;;;;;;2.50;2.20;;;14.90;49.40;;;;;;5056058;28;20484;-92
2022/05/28 03:38:15;;;;;;;2.87;1.80;;;15.00;49.00;;;;;;5075437;28;21458;-90
2022/05/28 03:40:43;;;;;;;6.13;2.00;;;14.90;48.60;;;;;;5068671;28;20467;-94
2022/05/28 03:43:10;;;;;;;4.03;2.80;;;14.80;48.70;;;;;;5062102;28;20818;-91
2022/05/28 03:45:37;;;;;;;5.47;2.20;;;14.80;49.60;;;;;;5072141;28;20447;-94
2022/05/28 03:48:08;;;;;;;4.23;2.30;;;14.80;49.80;;;;;;5095733;28;20479;-91
2022/05/28 03:50:35;;;;;;;10.10;2.23;;;14.80;50.50;;;;;;5065096;28;20435;-91
2022/05/28 03:53:03;;;;;;;2.80;2.10;;;14.80;51.20;;;;;;5068023;28;20440;-90
2022/05/28 03:55:32;;;;;;;4.50;2.37;;;14.90;51.10;;;;;;5058993;28;20452;-93
2022/05/28 03:57:59;;;;;;;5.13;2.70;;;14.90;51.90;;;;;;5080640;28;20466;-92
2022/05/28 04:00:27;;;;;;;3.50;2.40;;;14.80;52.20;;;;;;5051046;28;20496;-90
2022/05/28 04:02:54;;;;;;;8.47;3.20;;;14.80;52.30;;;;;;5066470;28;20446;-90
2022/05/28 04:05:22;;;;;;;7.17;2.97;;;14.90;52.30;;;;;;5088418;28;20797;-91
2022/05/28 04:07:50;;;;;;;4.13;1.90;;;14.90;52.70;;;;;;5088406;28;20460;-91
2022/05/28 04:10:17;;;;;;;6.37;2.37;;;14.70;52.10;;;;;;5054920;28;21236;-90
2022/05/28 04:12:46;;;;;;;13.60;3.37;;;14.80;52.80;;;;;;5072178;28;20549;-91
2022/05/28 04:15:14;;;;;;;6.07;2.00;;;14.80;52.60;;;;;;5095766;28;20961;-93
2022/05/28 04:17:42;;;;;;;5.00;2.57;;;14.50;52.60;;;;;;5046529;28;20558;-91
2022/05/28 04:20:13;;;;;;;8.07;2.50;;;14.60;52.10;;;;;;5059389;28;20970;-91
2022/05/28 04:22:40;;;;;;;2.90;1.80;;;14.60;51.30;;;;;;5058179;28;20531;-92
2022/05/28 04:25:09;;;;;;;4.50;2.30;;;14.60;50.90;;;;;;5061847;28;20516;-90
2022/05/28 04:27:36;;;;;;;4.17;2.10;;;14.70;50.80;;;;;;5068121;28;20463;-93
2022/05/28 04:30:05;;;;;;;6.00;2.00;;;14.90;51.40;;;;;;5067360;28;20781;-89
2022/05/28 04:32:32;;;;;;;4.07;2.13;;;15.00;50.70;;;;;;5100679;28;20443;-91
2022/05/28 04:34:59;;;;;;;6.40;1.93;;;15.10;50.10;;;;;;5054339;28;20981;-91
2022/05/28 04:37:27;;;;;;;6.43;2.67;;;15.10;50.20;;;;;;5051890;28;20475;-94
2022/05/28 04:39:54;;;;;;;7.93;1.97;;;15.00;49.50;;;;;;5049148;28;20539;-90
2022/05/28 04:42:21;;;;;;;6.47;1.93;;;14.90;48.70;;;;;;5067324;28;20439;-93
2022/05/28 04:44:48;;;;;;;3.80;1.80;;;14.90;48.40;;;;;;5076040;28;21312;-91
2022/05/28 04:47:16;;;;;;;4.30;1.80;;;14.70;48.30;;;;;;5050432;28;20466;-92
2022/05/28 04:49:43;;;;;;;4.63;1.90;;;14.80;48.20;;;;;;5063147;28;20958;-91
2022/05/28 04:52:10;;;;;;;3.73;1.40;;;14.90;48.20;;;;;;5068170;28;20457;-91
2022/05/28 04:54:37;;;;;;;5.17;2.27;;;14.90;48.00;;;;;;5094335;28;20451;-90
2022/05/28 04:57:05;;;;;;;4.67;2.10;;;14.80;47.90;;;;;;5052314;28;20498;-91
2022/05/28 04:59:32;;;;;;;6.53;1.77;;;14.80;48.40;;;;;;5043139;28;20459;-92
2022/05/28 05:01:59;;;;;;;7.20;1.97;;;14.70;48.90;;;;;;5062948;28;21097;-91
2022/05/28 05:04:28;;;;;;;11.17;1.63;;;14.60;48.20;;;;;;5054122;28;20471;-89
2022/05/28 05:06:55;;;;;;;4.67;1.43;;;14.50;48.10;;;;;;5063050;28;20537;-89
2022/05/28 05:09:22;;;;;;;4.80;1.70;;;14.50;48.80;;;;;;5079681;28;20532;-91
2022/05/28 05:11:49;;;;;;;4.97;1.77;;;14.50;48.90;;;;;;5064646;28;20838;-90
2022/05/28 05:14:16;;;;;;;4.27;2.00;;;14.40;48.40;;;;;;5069895;28;20444;-92
2022/05/28 05:16:43;;;;;;;6.60;2.10;;;14.40;49.20;;;;;;5069786;28;20456;-90
2022/05/28 05:19:11;;;;;;;3.90;1.70;;;14.50;49.40;;;;;;5064973;28;20993;-91
2022/05/28 05:21:40;;;;;;;6.10;1.73;;;14.80;49.10;;;;;;5049190;28;20621;-90
2022/05/28 05:24:07;;;;;;;4.60;1.70;;;14.90;48.40;;;;;;5064718;28;20504;-91
2022/05/28 05:26:34;;;;;;;8.10;1.70;;;14.80;48.10;;;;;;5079705;28;20959;-91
2022/05/28 05:29:01;;;;;;;2.90;1.57;;;14.70;48.80;;;;;;5071485;28;20473;-92
2022/05/28 05:31:28;;;;;;;4.87;1.57;;;14.70;48.80;;;;;;5068999;28;20496;-90
2022/05/28 05:33:55;;;;;;;5.87;2.33;;;14.80;48.70;;;;;;5052548;28;20564;-89
2022/05/28 05:36:22;;;;;;;9.23;3.00;;;14.80;48.50;;;;;;5045032;28;20454;-89
2022/05/28 05:38:50;;;;;;;3.87;1.80;;;14.80;48.80;;;;;;5047277;28;20993;-89
2022/05/28 05:41:17;;;;;;;5.20;1.70;;;15.10;48.00;;;;;;5067573;28;20467;-89
2022/05/28 05:43:44;;;;;;;5.90;1.50;;;15.20;47.60;;;;;;5069642;28;20454;-89
2022/05/28 05:46:13;;;;;;;7.17;1.80;;;15.40;47.50;;;;;;5048722;28;20501;-89
2022/05/28 05:48:40;;;;;;;4.20;1.73;;;15.50;47.20;;;;;;5060150;28;20489;-92
2022/05/28 05:51:09;;;;;;;5.03;1.80;;;15.60;48.00;;;;;;5069151;28;20450;-90
2022/05/28 05:53:36;;;;;;;3.13;1.50;;;15.50;46.40;;;;;;5078233;28;21283;-91
2022/05/28 05:56:06;;;;;;;3.73;1.73;;;15.50;47.80;;;;;;5068716;28;21139;-91
2022/05/28 05:58:34;;;;;;;3.40;1.70;;;15.80;48.20;;;;;;5054500;28;20502;-91
2022/05/28 06:01:02;;;;;;;5.43;1.70;;;16.00;47.60;;;;;;5061171;28;20471;-90
2022/05/28 06:03:29;;;;;;;2.97;1.30;;;16.30;46.70;;;;;;5078245;28;20512;-90
2022/05/28 06:05:58;;;;;;;4.63;1.60;;;16.40;46.50;;;;;;5067035;28;20459;-92
2022/05/28 06:08:25;;;;;;;5.10;1.50;;;16.30;46.50;;;;;;5044814;28;20556;-92
2022/05/28 06:10:52;;;;;;;4.03;1.70;;;16.30;46.60;;;;;;5051288;28;21166;-89
2022/05/28 06:13:21;;;;;;;11.10;2.00;;;16.40;46.10;;;;;;5054938;28;20439;-89
2022/05/28 06:15:48;;;;;;;8.33;1.90;;;16.40;47.40;;;;;;5062769;28;20954;-90
2022/05/28 06:18:17;;;;;;;5.50;1.93;;;16.50;46.20;;;;;;5079808;28;21057;-92
2022/05/28 06:20:44;;;;;;;2.53;1.50;;;16.40;47.10;;;;;;5063726;28;20509;-92
2022/05/28 06:23:11;;;;;;;4.90;1.83;;;16.40;46.40;;;;;;5096517;28;20446;-88
2022/05/28 06:25:39;;;;;;;3.93;1.80;;;16.60;47.10;;;;;;5061044;28;20448;-90
2022/05/28 06:28:07;;;;;;;5.13;1.90;;;16.90;47.00;;;;;;5067419;28;20495;-92
2022/05/28 06:30:35;;;;;;;5.47;1.90;;;17.10;46.20;;;;;;5065368;28;20807;-91
2022/05/28 06:33:03;;;;;;;3.47;1.47;;;17.10;44.40;;;;;;5069629;28;20523;-91
2022/05/28 06:35:31;;;;;;;5.27;1.63;;;17.30;45.00;;;;;;5077919;28;20471;-90
2022/05/28 06:37:59;;;;;;;8.17;2.67;;;17.50;45.10;;;;;;5091526;28;20460;-90
2022/05/28 06:40:27;;;;;;;2.80;1.40;;;17.50;43.70;;;;;;5105475;28;20470;-90
2022/05/28 06:42:56;;;;;;;6.03;3.00;;;17.60;44.50;;;;;;5069393;28;20478;-90
2022/05/28 06:45:23;;;;;;;2.53;1.30;;;17.80;44.40;;;;;;5060597;28;20439;-92
2022/05/28 06:47:52;;;;;;;5.30;1.60;;;18.00;43.90;;;;;;5059605;28;20920;-90
2022/05/28 06:53:09;;;;;;;4.23;1.77;;;18.20;43.60;;;;;;5073415;28;20443;-89
2022/05/28 06:55:37;;;;;;;3.67;1.87;;;18.00;43.50;;;;;;5052582;28;20479;-89
2022/05/28 06:58:06;;;;;;;3.80;1.60;;;18.00;43.10;;;;;;5072907;28;20471;-89
2022/05/28 07:00:34;;;;;;;4.00;1.90;;;18.20;44.00;;;;;;5067159;28;20460;-88
2022/05/28 07:03:04;;;;;;;3.33;1.47;;;18.30;43.00;;;;;;5073410;28;20468;-91
2022/05/28 07:05:31;;;;;;;5.40;1.80;;;18.20;42.30;;;;;;5058702;28;20452;-90
2022/05/28 07:07:59;;;;;;;5.53;2.03;;;18.20;42.50;;;;;;5065072;28;20467;-91
2022/05/28 07:10:26;;;;;;;2.97;1.80;;;17.80;42.70;;;;;;5061709;28;20674;-90
2022/05/28 07:12:53;;;;;;;7.20;1.60;;;17.70;43.30;;;;;;5061522;28;20478;-94
2022/05/28 07:15:21;;;;;;;4.70;1.33;;;17.80;44.60;;;;;;5067079;28;20431;-88
2022/05/28 07:17:48;;;;;;;5.30;2.00;;;18.00;44.60;;;;;;5044456;28;20476;-91
2022/05/28 07:20:16;;;;;;;6.10;1.93;;;18.00;43.50;;;;;;5083366;28;20470;-89
2022/05/28 07:22:43;;;;;;;4.13;1.77;;;18.00;42.00;;;;;;5048371;28;20444;-88
2022/05/28 07:25:11;;;;;;;7.07;1.97;;;17.90;43.20;;;;;;5077201;28;20494;-89
2022/05/28 07:27:38;;;;;;;4.47;1.37;;;17.90;43.50;;;;;;5081787;28;20520;-89
2022/05/28 07:30:06;;;;;;;5.63;2.13;;;17.90;43.40;;;;;;5062337;28;20448;-89
2022/05/28 07:32:34;;;;;;;2.60;1.70;;;17.90;42.40;;;;;;5064716;28;20450;-90
2022/05/28 07:35:01;;;;;;;3.07;1.40;;;18.00;43.50;;;;;;5059047;28;20458;-92
2022/05/28 07:37:31;;;;;;;6.30;1.70;;;17.70;43.40;;;;;;5074381;28;20533;-91
2022/05/28 07:39:59;;;;;;;3.70;1.67;;;17.80;44.60;;;;;;5062061;28;20454;-89
2022/05/28 07:42:28;;;;;;;8.00;1.50;;;17.80;43.10;;;;;;5052626;28;21021;-92
2022/05/28 07:44:55;;;;;;;3.90;1.27;;;17.90;42.80;;;;;;5074701;28;20440;-90
2022/05/28 07:47:22;;;;;;;2.27;1.40;;;17.80;43.80;;;;;;5076647;28;20541;-89
2022/05/28 07:49:49;;;;;;;3.17;1.57;;;18.00;42.30;;;;;;5063062;28;20435;-89
2022/05/28 07:52:17;;;;;;;2.40;1.40;;;18.20;42.50;;;;;;5077822;28;21204;-89
2022/05/28 07:54:46;;;;;;;3.50;1.60;;;18.20;42.70;;;;;;5075665;28;20805;-90
2022/05/28 07:57:13;;;;;;;3.30;1.40;;;18.00;42.10;;;;;;5056479;28;20750;-88
2022/05/28 07:59:40;;;;;;;7.60;1.33;;;17.70;42.20;;;;;;5055881;28;20447;-91
2022/05/28 08:02:08;;;;;;;2.63;1.10;;;17.80;41.90;;;;;;5061138;28;21795;-88
2022/05/28 08:04:35;;;;;;;3.20;1.30;;;17.90;43.30;;;;;;5077023;28;20486;-89
2022/05/28 08:07:02;;;;;;;2.90;1.53;;;18.00;42.20;;;;;;5075335;28;20513;-90
2022/05/28 08:09:29;;;;;;;3.40;1.37;;;18.10;41.40;;;;;;5069108;28;21075;-89
2022/05/28 08:11:57;;;;;;;3.57;1.33;;;18.00;41.60;;;;;;5070913;28;20450;-88
2022/05/28 08:14:24;;;;;;;3.87;1.27;;;18.00;42.20;;;;;;5085475;28;20458;-87
2022/05/28 08:16:51;;;;;;;2.03;1.43;;;18.00;42.10;;;;;;5100354;28;20463;-87
2022/05/28 08:19:18;;;;;;;3.50;1.37;;;18.10;41.30;;;;;;5064524;28;20450;-90
2022/05/28 08:24:29;;;;;;;4.10;1.20;;;18.00;42.20;;;;;;5081868;28;20533;-87
2022/05/28 08:26:58;;;;;;;2.50;1.40;;;18.00;40.80;;;;;;5098351;28;20461;-87
2022/05/28 08:29:25;;;;;;;2.73;1.70;;;18.10;42.30;;;;;;5054357;28;20455;-89
2022/05/28 08:31:52;;;;;;;8.53;2.23;;;18.30;42.50;;;;;;5078874;28;20446;-87
2022/05/28 08:34:19;;;;;;;6.20;2.17;;;18.40;41.80;;;;;;5077015;28;20439;-87
2022/05/28 08:36:46;;;;;;;3.87;1.70;;;18.30;40.40;;;;;;5084282;28;21097;-88
2022/05/28 08:39:13;;;;;;;6.07;1.73;;;18.40;42.10;;;;;;5071162;28;20545;-88
2022/05/28 08:41:45;;;;;;;4.23;1.57;;;18.20;40.70;;;;;;5094717;28;20590;-88
2022/05/28 08:44:18;;;;;;;4.77;1.70;;;18.10;42.00;;;;;;5058956;28;20443;-86
2022/05/28 08:46:51;;;;;;;3.37;1.47;;;18.20;41.90;;;;;;5068582;28;20449;-87
2022/05/28 08:49:24;;;;;;;2.03;1.30;;;18.00;42.60;;;;;;5090661;28;20922;-88
2022/05/28 08:51:53;;;;;;;7.00;1.93;;;18.30;43.40;;;;;;5066833;28;20456;-87
2022/05/28 08:54:25;;;;;;;7.70;1.70;;;18.40;41.30;;;;;;5059388;28;20435;-87
2022/05/28 08:56:57;;;;;;;1.67;1.23;;;18.40;41.30;;;;;;5080742;28;20458;-87
2022/05/28 08:59:29;;;;;;;4.50;1.50;;;18.70;41.10;;;;;;5047646;28;20542;-89
2022/05/28 09:01:57;;;;;;;3.00;1.40;;;18.80;41.40;;;;;;5063267;28;20895;-88
2022/05/28 09:04:28;;;;;;;3.23;1.37;;;19.00;41.80;;;;;;5071886;28;20920;-89
2022/05/28 09:06:57;;;;;;;3.23;1.53;;;19.30;41.80;;;;;;5076633;28;20463;-88
2022/05/28 09:09:30;;;;;;;2.10;1.40;;;19.50;41.60;;;;;;5093907;28;20444;-90
2022/05/28 09:12:02;;;;;;;1.30;1.20;;;19.60;40.80;;;;;;5083343;28;20496;-88
2022/05/28 09:14:33;;;;;;;8.00;1.63;;;19.80;41.10;;;;;;5062812;28;20448;-88
2022/05/28 09:17:04;;;;;;;3.23;1.70;;;20.10;41.20;;;;;;5078036;28;20898;-87
2022/05/28 09:19:37;;;;;;;7.50;1.47;;;20.10;38.60;;;;;;5046631;28;20520;-89
2022/05/28 09:22:04;;;;;;;6.43;1.73;;;20.00;39.80;;;;;;5055823;28;20468;-88
2022/05/28 09:24:33;;;;;;;3.73;1.37;;;19.80;38.50;;;;;;5082193;28;20537;-88
2022/05/28 09:27:06;;;;;;;3.10;1.30;;;19.50;39.40;;;;;;5054741;28;20996;-86
2022/05/28 09:29:53;;;;;;;6.47;1.60;;;19.60;39.40;;;;;;5067212;28;20459;-89
2022/05/28 09:32:26;;;;;;;6.10;1.60;;;19.60;39.60;;;;;;5073242;28;20714;-88
2022/05/28 09:35:07;;;;;;;4.80;1.93;;;19.60;40.40;;;;;;5069346;28;20464;-90
2022/05/28 09:37:45;;;;;;;3.57;1.53;;;19.90;39.40;;;;;;5079065;28;20841;-87
2022/05/28 09:40:18;;;;;;;3.93;1.50;;;19.70;39.50;;;;;;5081597;28;20437;-87
2022/05/28 09:43:03;;;;;;;6.13;2.00;;;19.80;39.20;;;;;;5078468;28;20533;-91
2022/05/28 09:45:38;;;;;;;1.53;1.10;;;20.30;39.40;;;;;;5067340;28;20443;-87
2022/05/28 09:48:05;;;;;;;3.20;1.20;;;20.90;38.70;;;;;;5077096;28;20467;-88
2022/05/28 09:50:42;;;;;;;2.50;1.60;;;20.90;36.70;;;;;;5078797;28;20439;-91
2022/05/28 09:55:59;;;;;;;3.13;1.33;;;20.30;37.90;;;;;;5068857;28;20455;-90
2022/05/28 09:58:30;;;;;;;2.70;1.43;;;20.00;37.60;;;;;;5075745;28;20466;-87
2022/05/28 10:01:08;;;;;;;6.97;2.37;;;19.70;37.60;;;;;;5094153;28;20493;-89
2022/05/28 10:06:23;;;;;;;3.50;1.40;;;19.40;38.20;;;;;;5075740;28;20447;-88
2022/05/28 10:08:50;;;;;;;3.37;1.93;;;19.50;39.80;;;;;;5076550;28;20451;-90
2022/05/28 10:11:19;;;;;;;6.37;1.87;;;19.90;39.60;;;;;;5080651;28;20443;-92
2022/05/28 10:13:48;;;;;;;5.30;1.70;;;20.00;38.80;;;;;;5067542;28;20501;-88
2022/05/28 10:16:20;;;;;;;2.10;1.27;;;20.20;38.00;;;;;;5094756;28;20562;-89
2022/05/28 10:18:53;;;;;;;2.73;1.60;;;20.50;37.50;;;;;;5078692;28;20471;-88
2022/05/28 10:21:28;;;;;;;2.60;1.77;;;20.90;36.10;;;;;;5065512;28;20467;-89
2022/05/28 10:24:00;;;;;;;2.00;1.60;;;21.10;34.80;;;;;;5064545;28;20984;-87
2022/05/28 10:26:30;;;;;;;5.43;1.70;;;21.30;34.60;;;;;;5098239;28;20446;-88
2022/05/28 10:29:01;;;;;;;2.03;1.60;;;21.30;34.60;;;;;;5067656;28;20478;-88
2022/05/28 10:31:32;;;;;;;3.30;1.40;;;21.60;36.40;;;;;;5076519;28;20451;-89
2022/05/28 10:33:59;;;;;;;3.17;1.90;;;21.60;36.20;;;;;;5075046;28;20445;-89
2022/05/28 10:36:28;;;;;;;3.93;1.40;;;21.40;35.30;;;;;;5088302;28;20446;-88
2022/05/28 10:39:09;;;;;;;5.43;1.90;;;21.10;36.10;;;;;;5081942;28;20558;-88
2022/05/28 10:41:36;;;;;;;2.80;1.93;;;20.80;36.10;;;;;;5077701;28;20835;-89
2022/05/28 10:44:05;;;;;;;2.73;2.10;;;20.60;37.60;;;;;;5092177;27;20450;-90
2022/05/28 10:46:47;;;;;;;4.10;1.50;;;20.70;36.40;;;;;;5045856;28;20808;-89
2022/05/28 10:49:29;;;;;;;3.37;1.53;;;21.00;37.40;;;;;;5093291;28;20447;-88
2022/05/28 10:52:05;;;;;;;4.93;1.60;;;21.40;35.60;;;;;;5066747;28;20446;-88
2022/05/28 10:54:43;;;;;;;2.60;1.43;;;21.70;35.70;;;;;;5076196;28;20965;-89
2022/05/28 10:57:31;;;;;;;2.13;1.93;;;22.10;34.20;;;;;;5059243;27;20470;-87
2022/05/28 11:00:07;;;;;;;4.93;1.70;;;22.40;32.70;;;;;;5079379;28;20468;-89
2022/05/28 11:03:07;;;;;;;1.80;1.60;;;22.60;32.10;;;;;;5059812;28;20493;-88
2022/05/28 11:05:53;;;;;;;2.07;1.37;;;22.80;31.90;;;;;;5047134;28;20463;-89
2022/05/28 11:08:31;;;;;;;4.30;1.80;;;22.80;33.30;;;;;;5057995;28;20454;-89
2022/05/28 11:11:16;;;;;;;2.00;1.70;;;23.00;33.10;;;;;;5087031;28;20454;-87
2022/05/28 11:14:06;;;;;;;2.70;2.07;;;22.80;32.40;;;;;;5038203;28;21180;-90
2022/05/28 11:16:59;;;;;;;4.20;2.03;;;22.70;33.90;;;;;;5088159;28;20831;-88
2022/05/28 11:19:47;;;;;;;2.90;1.70;;;22.60;34.30;;;;;;5066597;28;20454;-89
2022/05/28 11:22:39;;;;;;;1.77;1.53;;;22.20;32.40;;;;;;5088483;28;20464;-88
2022/05/28 11:25:13;;;;;;;6.67;2.13;;;21.90;32.30;;;;;;5088485;28;20554;-89
2022/05/28 11:27:55;;;;;;;2.17;1.70;;;22.20;31.30;;;;;;5089822;28;20480;-89
2022/05/28 11:30:27;;;;;;;3.30;1.60;;;22.40;31.60;;;;;;5057337;28;20436;-88
2022/05/28 11:32:59;;;;;;;2.27;1.80;;;22.60;33.40;;;;;;5087800;28;20448;-88
2022/05/28 11:35:35;;;;;;;1.70;1.60;;;22.40;30.60;;;;;;5072257;28;20454;-88
2022/05/28 11:38:10;;;;;;;4.07;2.27;;;22.30;31.20;;;;;;5071777;28;20985;-88
2022/05/28 11:40:48;;;;;;;3.90;2.20;;;22.80;33.20;;;;;;5093179;28;20525;-89
2022/05/28 11:43:20;;;;;;;2.47;1.70;;;23.00;30.70;;;;;;5092039;28;20856;-89
2022/05/28 11:45:52;;;;;;;1.60;1.50;;;23.00;30.00;;;;;;5087584;28;20943;-87
2022/05/28 11:48:25;;;;;;;2.30;2.10;;;23.00;28.70;;;;;;5073200;28;20466;-89
2022/05/28 11:53:51;;;;;;;3.53;1.80;;;23.20;29.00;;;;;;5070067;28;20781;-88
2022/05/28 11:56:22;;;;;;;3.10;2.07;;;23.30;30.00;;;;;;5090505;28;20806;-91
2022/05/28 11:58:53;;;;;;;2.90;2.60;;;23.00;29.00;;;;;;5069459;28;20516;-92
2022/05/28 12:01:24;;;;;;;8.00;2.30;;;23.20;29.90;;;;;;5090701;28;20504;-87
2022/05/28 12:03:52;;;;;;;3.10;1.90;;;23.10;29.40;;;;;;5046830;28;20442;-90
2022/05/28 12:06:26;;;;;;;3.27;2.10;;;23.40;29.50;;;;;;5088166;28;20457;-89
2022/05/28 12:09:02;;;;;;;3.47;1.70;;;23.40;28.60;;;;;;5074557;28;21054;-90
2022/05/28 12:11:46;;;;;;;2.37;1.90;;;23.60;29.20;;;;;;5087422;28;20954;-88
2022/05/28 12:14:26;;;;;;;1.90;1.80;;;23.60;28.40;;;;;;5061859;28;21202;-88
2022/05/28 12:17:08;;;;;;;1.80;1.70;;;23.90;29.10;;;;;;5071699;28;20455;-89
2022/05/28 12:19:44;;;;;;;3.40;1.67;;;24.20;29.20;;;;;;5040274;28;20474;-89
2022/05/28 12:22:27;;;;;;;4.23;2.07;;;24.20;27.50;;;;;;5066322;28;21009;-92
2022/05/28 12:25:03;;;;;;;1.73;1.60;;;24.30;28.40;;;;;;5085904;28;20451;-87
2022/05/28 12:27:38;;;;;;;3.63;1.90;;;24.10;27.80;;;;;;5059665;28;20569;-90
2022/05/28 12:30:08;;;;;;;3.67;1.93;;;24.30;28.90;;;;;;5085416;28;20440;-87
2022/05/28 12:32:48;;;;;;;2.80;2.60;;;24.70;29.30;;;;;;5069177;28;20440;-90
2022/05/28 12:35:38;;;;;;;3.93;2.10;;;24.80;26.80;;;;;;5074718;28;20492;-88
2022/05/28 12:38:17;;;;;;;2.33;1.90;;;24.90;26.30;;;;;;5073826;28;20466;-89
2022/05/28 12:40:53;;;;;;;2.43;1.60;;;24.90;27.40;;;;;;5092635;28;20439;-88
2022/05/28 12:43:27;;;;;;;5.63;1.77;;;24.50;24.90;;;;;;5067945;28;20981;-87
2022/05/28 12:45:56;;;;;;;1.83;1.50;;;23.70;27.00;;;;;;5074901;28;20893;-87
2022/05/28 12:48:26;;;;;;;6.03;1.83;;;23.60;28.30;;;;;;5053187;28;20481;-89
2022/05/28 12:51:24;;;;;;;4.00;2.30;;;23.80;29.10;;;;;;5052156;28;20483;-86
2022/05/28 12:53:54;;;;;;;1.70;1.60;;;24.10;26.30;;;;;;5089388;28;20440;-87
2022/05/28 12:56:29;;;;;;;4.20;2.07;;;24.00;27.30;;;;;;5076066;28;20919;-88
2022/05/28 12:59:09;;;;;;;5.20;1.70;;;24.20;28.10;;;;;;5089144;28;20923;-90
2022/05/28 13:01:38;;;;;;;1.97;1.67;;;24.90;26.80;;;;;;5058501;28;20451;-88
2022/05/28 13:04:13;;;;;;;3.60;1.90;;;24.90;26.20;;;;;;5075112;28;21141;-90
2022/05/28 13:06:47;;;;;;;1.60;1.50;;;24.40;27.00;;;;;;5071228;28;20451;-89
2022/05/28 13:09:15;;;;;;;1.60;1.50;;;24.20;27.60;;;;;;5083206;28;20474;-92
2022/05/28 13:11:48;;;;;;;4.37;1.90;;;24.00;27.20;;;;;;5092275;28;20447;-89
2022/05/28 13:14:35;;;;;;;1.97;1.67;;;23.60;26.30;;;;;;5072930;27;21393;-88
2022/05/28 13:17:14;;;;;;;2.83;1.83;;;23.00;27.90;;;;;;5096255;28;20444;-91
2022/05/28 13:19:53;;;;;;;3.13;1.80;;;23.10;28.60;;;;;;5050276;28;20531;-88